Terminal Aerodrome Forecast
Issued by NWS Burlington, VT

Home | Current Version | Previous Version | Text Only | Print | Product List | Glossary On
Versions: 1 2 3 4 5 6 7 8 9 10 11 12 13 14 15 16 17
000
FTUS41 KBTV 170856 AAB
TAFBTV
TAF AMD
KBTV 170856Z 1709/1806 32005KT 4SM BR SCT008 OVC110
      TEMPO 1709/1711 BKN008
     FM171100 00000KT 3SM -SN BR OVC030
     FM171300 00000KT 2SM -SN BR OVC025
     FM171600 00000KT 3SM -SN BR OVC030
     FM172200 28005KT P6SM VCSH BKN035
     FM180400 22004KT P6SM BKN090=

USA.gov is the U.S. government's official web portal to all federal, state and local government web resources and services.